Terminal Aerodrome Forecast
Issued by NWS

Home | Current Version | Previous Version | Text Only | Print | Product List | Glossary On
Versions: 1 2 3 4 5 6 7 8 9 10 11 12 13 14 15 16 17 18
000
FTUS43 KILX 032320
TAFCMI
TAF
KCMI 032320Z 0400/0424 19015G25KT P6SM SCT120
     FM040100 18013KT P6SM SCT120
     FM041100 19012KT P6SM VCSH SCT060 BKN100
     FM041400 22014G20KT P6SM BKN060=

USA.gov is the U.S. government's official web portal to all federal, state and local government web resources and services.